Wattenburg, Colorado
Current Conditions -  °F | °C
As of 10:55 PM on Monday 26 Jan 2015 (Local Time) from KEIK Reporting Station
Clear Clear  
Wind Chill: 35°   Ceiling: Unl
Heat Index: 35°   Visibility: 10mi
Dew Point: 25°   Wind: 0mph
Humidity: 68%   Direction: NA
Pressure: 30.2"   Gusts: NA
Location:  40.0874°N, 104.866°W
Report Text: KEIK 270555Z AUTO 00000KT 10SM CLR 01/M04 A3020 RMK AO2 T00141040 10159 20012 402291028
Loading
Personal Weather Stations






























Interactive Weather Map New forecast layout! Learn more

10-Day Weather Forecast

Advertisements
Track Severe Weather on mobile